createdAt,value
2022-11-28T00:02:14.482Z,3.37
2022-11-28T00:05:17.583Z,3.36
2022-11-28T00:08:20.088Z,3.31
2022-11-28T00:11:22.515Z,3.30
2022-11-28T00:14:24.691Z,3.31
2022-11-28T00:17:27.189Z,3.25
2022-11-28T00:20:31.693Z,3.44
2022-11-28T00:23:34.577Z,3.45
2022-11-28T00:26:39.613Z,3.30
2022-11-28T00:29:42.104Z,3.30
2022-11-28T00:32:44.169Z,3.49
2022-11-28T00:35:46.832Z,3.27
2022-11-28T00:38:49.636Z,3.42
2022-11-28T00:41:51.968Z,3.43
2022-11-28T00:44:54.000Z,3.38
2022-11-28T00:47:56.356Z,3.49
2022-11-28T00:51:10.211Z,3.44
2022-11-28T00:54:12.646Z,3.44
2022-11-28T00:57:14.740Z,3.45
2022-11-28T01:00:17.431Z,3.41
2022-11-28T01:03:19.601Z,3.37
2022-11-28T01:06:30.729Z,3.45
2022-11-28T01:09:32.910Z,3.40
2022-11-28T01:12:35.368Z,3.29
2022-11-28T01:15:40.771Z,3.30
2022-11-28T01:18:43.049Z,3.24
2022-11-28T01:21:45.349Z,3.42
2022-11-28T01:24:47.744Z,3.48
2022-11-28T01:27:49.860Z,3.32
2022-11-28T01:30:52.338Z,3.27
2022-11-28T01:33:55.296Z,3.26
2022-11-28T01:36:57.737Z,3.17
2022-11-28T01:39:59.876Z,3.21
2022-11-28T01:43:02.315Z,3.20
2022-11-28T01:46:05.631Z,3.30
2022-11-28T01:49:13.478Z,3.24
2022-11-28T01:52:17.881Z,3.35
2022-11-28T01:55:24.943Z,3.31
2022-11-28T01:58:27.786Z,3.20
2022-11-28T02:01:30.278Z,3.22
2022-11-28T02:04:33.308Z,3.21
2022-11-28T02:07:37.126Z,3.25
2022-11-28T02:11:20.890Z,3.30
2022-11-28T02:14:52.788Z,3.23
2022-11-28T02:17:57.912Z,3.33
2022-11-28T02:21:26.579Z,3.29
2022-11-28T02:24:37.863Z,3.27
2022-11-28T02:28:04.610Z,3.28
2022-11-28T02:31:25.079Z,3.25
2022-11-28T02:34:37.796Z,3.07
2022-11-28T02:37:59.137Z,3.23
2022-11-28T02:41:08.702Z,3.26
2022-11-28T02:44:20.422Z,3.19
2022-11-28T02:47:43.981Z,3.24
2022-11-28T02:51:10.820Z,3.22
2022-11-28T02:54:15.413Z,3.19
2022-11-28T02:57:17.536Z,3.12
2022-11-28T03:00:23.078Z,3.21
2022-11-28T03:04:03.018Z,3.09
2022-11-28T03:07:23.727Z,3.17
2022-11-28T03:10:45.517Z,3.21
2022-11-28T03:14:04.336Z,3.04
2022-11-28T03:17:30.708Z,3.13
2022-11-28T03:20:56.441Z,3.24
2022-11-28T03:24:02.325Z,3.12
2022-11-28T03:27:26.414Z,3.17
2022-11-28T03:30:44.037Z,2.98
2022-11-28T03:33:51.628Z,3.10
2022-11-28T03:36:59.308Z,3.02
2022-11-28T03:40:09.524Z,3.15
2022-11-28T03:43:17.189Z,2.87
2022-11-28T03:46:21.559Z,2.99
2022-11-28T03:49:32.579Z,3.06
2022-11-28T03:52:51.759Z,3.01
2022-11-28T03:56:01.080Z,3.05
2022-11-28T03:59:23.933Z,3.04
2022-11-28T04:02:37.820Z,3.02
2022-11-28T04:06:17.985Z,3.04
2022-11-28T04:10:03.541Z,2.89
2022-11-28T04:13:31.175Z,2.95
2022-11-28T04:16:41.855Z,2.95
2022-11-28T04:19:50.133Z,2.87
2022-11-28T04:22:56.022Z,2.99
2022-11-28T04:26:28.479Z,2.97
2022-11-28T04:29:38.423Z,2.99
2022-11-28T04:32:46.484Z,2.61
2022-11-28T04:35:51.987Z,2.76
2022-11-28T04:38:59.254Z,2.71
2022-11-28T04:42:05.401Z,2.57
2022-11-28T04:45:11.767Z,2.62
2022-11-28T04:48:13.855Z,2.72
2022-11-28T04:51:19.429Z,2.73
2022-11-28T04:54:31.671Z,2.73
2022-11-28T04:57:38.099Z,2.74
2022-11-28T05:00:41.124Z,2.73
2022-11-28T05:03:43.656Z,2.84
2022-11-28T05:06:45.884Z,2.85
2022-11-28T05:09:48.632Z,2.88
2022-11-28T05:12:50.704Z,2.92
2022-11-28T05:15:53.176Z,2.90
2022-11-28T05:18:55.258Z,2.95
2022-11-28T05:21:57.568Z,2.98
2022-11-28T05:24:59.743Z,2.97
2022-11-28T05:28:02.037Z,2.99
2022-11-28T05:31:05.017Z,2.91
2022-11-28T05:34:07.424Z,2.84
2022-11-28T05:37:09.526Z,2.74
2022-11-28T05:40:12.322Z,2.83
2022-11-28T05:43:14.552Z,2.92
2022-11-28T05:46:18.072Z,2.91
2022-11-28T05:49:21.733Z,2.89
2022-11-28T05:52:24.105Z,2.95
2022-11-28T05:55:26.272Z,2.78
2022-11-28T05:58:28.761Z,2.79
2022-11-28T06:01:30.858Z,2.77
2022-11-28T06:04:33.625Z,2.78
2022-11-28T06:07:35.861Z,2.59
2022-11-28T06:10:38.259Z,2.72
2022-11-28T06:13:41.192Z,2.60
2022-11-28T06:16:43.772Z,2.61
2022-11-28T06:19:45.943Z,2.73
2022-11-28T06:22:48.216Z,2.58
2022-11-28T06:25:50.486Z,2.71
2022-11-28T06:28:55.516Z,2.68
2022-11-28T06:31:57.715Z,2.54
2022-11-28T06:35:00.122Z,2.70
2022-11-28T06:38:02.395Z,2.64
2022-11-28T06:41:07.761Z,2.78
2022-11-28T06:44:14.576Z,2.77
2022-11-28T06:47:16.997Z,2.74
2022-11-28T06:50:19.105Z,2.72
2022-11-28T06:53:21.478Z,2.77
2022-11-28T06:56:24.032Z,2.64
2022-11-28T06:59:26.473Z,2.64
2022-11-28T07:02:28.703Z,2.48
2022-11-28T07:05:31.694Z,2.51
2022-11-28T07:08:34.273Z,2.59
2022-11-28T07:11:36.643Z,2.41
2022-11-28T07:14:38.917Z,2.51
2022-11-28T07:17:41.535Z,2.44
2022-11-28T07:20:43.910Z,2.31
2022-11-28T07:23:47.153Z,2.41
2022-11-28T07:26:49.240Z,2.51
2022-11-28T07:29:51.596Z,2.38
2022-11-28T07:32:53.652Z,2.39
2022-11-28T07:36:00.440Z,2.38
2022-11-28T07:39:04.757Z,2.50
2022-11-28T07:42:07.227Z,2.31
2022-11-28T07:45:10.186Z,2.46
2022-11-28T07:48:12.720Z,2.53
2022-11-28T07:51:23.708Z,2.35
2022-11-28T07:54:26.106Z,2.49
2022-11-28T07:57:28.348Z,2.29
2022-11-28T08:00:30.797Z,2.13
2022-11-28T08:03:33.022Z,2.02
2022-11-28T08:06:37.853Z,2.08
2022-11-28T08:09:40.510Z,2.15
2022-11-28T08:12:43.156Z,2.35
2022-11-28T08:15:45.264Z,2.23
2022-11-28T08:18:48.621Z,2.17
2022-11-28T08:21:51.541Z,2.12
2022-11-28T08:24:53.924Z,2.13
2022-11-28T08:27:56.088Z,2.28
2022-11-28T08:30:59.670Z,2.28
2022-11-28T08:34:04.778Z,2.22
2022-11-28T08:37:07.161Z,2.13
2022-11-28T08:40:09.522Z,2.01
2022-11-28T08:43:12.200Z,2.09
2022-11-28T08:46:16.672Z,2.28
2022-11-28T08:49:19.485Z,2.29
2022-11-28T08:52:22.273Z,2.25
2022-11-28T08:55:31.978Z,2.26
2022-11-28T08:58:34.973Z,2.16
2022-11-28T09:01:37.590Z,2.15
2022-11-28T09:04:39.909Z,2.10
2022-11-28T09:07:42.209Z,2.28
2022-11-28T09:10:45.618Z,2.30
2022-11-28T09:13:48.128Z,2.36
2022-11-28T09:16:50.554Z,2.36
2022-11-28T09:19:52.987Z,2.38
2022-11-28T09:22:55.765Z,2.36
2022-11-28T09:25:58.179Z,2.43
2022-11-28T09:29:00.485Z,2.57
2022-11-28T09:32:02.802Z,2.47
2022-11-28T09:35:05.349Z,2.59
2022-11-28T09:38:07.870Z,2.77
2022-11-28T09:41:39.879Z,2.95
2022-11-28T09:44:47.265Z,2.79
2022-11-28T09:48:01.979Z,2.99
2022-11-28T09:51:23.067Z,3.02
2022-11-28T09:54:43.246Z,3.11
2022-11-28T09:57:50.558Z,3.25
2022-11-28T10:01:11.260Z,3.19
2022-11-28T10:04:18.634Z,3.18
2022-11-28T10:07:43.490Z,3.07
2022-11-28T10:10:55.466Z,3.28
2022-11-28T10:14:17.141Z,3.32
2022-11-28T10:17:28.580Z,3.23
2022-11-28T10:20:40.063Z,3.19
2022-11-28T10:23:44.741Z,3.39
2022-11-28T10:26:50.361Z,3.42
2022-11-28T10:30:01.655Z,3.52
2022-11-28T10:33:12.535Z,3.70
2022-11-28T10:36:26.225Z,3.60
2022-11-28T10:39:28.970Z,3.69
2022-11-28T10:42:48.537Z,3.63
2022-11-28T10:45:56.527Z,3.88
2022-11-28T10:49:24.316Z,3.90
2022-11-28T10:52:31.480Z,3.97
2022-11-28T10:56:08.421Z,3.89
2022-11-28T10:59:31.594Z,3.99
2022-11-28T11:02:38.632Z,3.97
2022-11-28T11:05:41.422Z,3.66
2022-11-28T11:08:45.793Z,3.80
2022-11-28T11:11:58.369Z,3.78
2022-11-28T11:15:15.588Z,3.97
2022-11-28T11:18:33.322Z,4.16
2022-11-28T11:21:36.079Z,4.02
2022-11-28T11:24:38.311Z,3.93
2022-11-28T11:27:59.910Z,4.01
2022-11-28T11:31:14.525Z,3.98
2022-11-28T11:34:18.593Z,4.00
2022-11-28T11:37:38.171Z,3.82
2022-11-28T11:40:40.800Z,3.76
2022-11-28T11:43:43.028Z,3.95
2022-11-28T11:47:03.945Z,3.87
2022-11-28T11:50:06.815Z,3.92
2022-11-28T11:53:09.337Z,3.84
2022-11-28T11:56:12.677Z,3.77
2022-11-28T11:59:43.206Z,4.00
2022-11-28T12:02:46.971Z,3.93
2022-11-28T12:09:39.336Z,4.09
2022-11-28T12:12:42.137Z,3.67
2022-11-28T12:16:06.346Z,3.85
2022-11-28T12:19:34.670Z,3.66
2022-11-28T12:22:55.373Z,3.71
2022-11-28T12:26:08.883Z,3.85
2022-11-28T12:29:29.588Z,3.75
2022-11-28T12:32:54.437Z,3.70
2022-11-28T12:36:15.059Z,3.70
2022-11-28T12:39:55.357Z,3.81
2022-11-28T12:43:37.762Z,3.79
2022-11-28T12:46:50.428Z,3.61
2022-11-28T12:49:58.581Z,3.62
2022-11-28T12:53:29.013Z,3.49
2022-11-28T12:56:51.629Z,3.43
2022-11-28T13:00:08.743Z,3.43
2022-11-28T13:03:33.173Z,3.36
2022-11-28T13:07:10.562Z,3.32
2022-11-28T13:10:26.394Z,3.27
2022-11-28T13:13:37.751Z,3.30
2022-11-28T13:16:43.428Z,3.37
2022-11-28T13:19:59.225Z,3.40
2022-11-28T13:23:23.756Z,3.41
2022-11-28T13:26:50.853Z,3.45
2022-11-28T13:30:07.376Z,3.35
2022-11-28T13:33:30.622Z,3.43
2022-11-28T13:40:54.448Z,3.24
2022-11-28T13:44:15.481Z,3.15
2022-11-28T13:47:23.731Z,3.26
2022-11-28T13:50:33.837Z,3.28
2022-11-28T13:53:36.222Z,3.16
2022-11-28T13:56:38.253Z,3.02
2022-11-28T13:59:40.785Z,3.09
2022-11-28T14:02:46.074Z,3.15
2022-11-28T14:05:54.801Z,3.11
2022-11-28T14:09:07.861Z,3.19
2022-11-28T14:12:32.013Z,3.18
2022-11-28T14:16:07.790Z,3.25
2022-11-28T14:19:10.553Z,3.17
2022-11-28T14:22:42.019Z,3.19
2022-11-28T14:25:50.209Z,3.07
2022-11-28T14:28:55.021Z,3.15
2022-11-28T14:35:54.916Z,3.10
2022-11-28T14:39:05.411Z,3.11
2022-11-28T14:42:08.133Z,3.04
2022-11-28T14:45:41.209Z,3.07
2022-11-28T14:49:01.916Z,2.97
2022-11-28T14:55:45.581Z,2.90
2022-11-28T14:58:49.508Z,2.98
2022-11-28T15:02:10.703Z,2.97
2022-11-28T15:05:29.893Z,2.96
2022-11-28T15:08:38.264Z,2.97
2022-11-28T15:12:05.110Z,2.91
2022-11-28T15:15:13.278Z,2.96
2022-11-28T15:18:18.022Z,2.83
2022-11-28T15:43:13.611Z,2.33
2022-11-28T15:46:33.534Z,2.58
2022-11-28T15:49:36.142Z,2.54
2022-11-28T15:52:38.482Z,2.45
2022-11-28T15:55:40.649Z,2.74
2022-11-28T15:58:44.736Z,2.83
2022-11-28T16:02:33.056Z,2.98
2022-11-28T16:05:35.602Z,3.05
2022-11-28T16:09:07.335Z,3.09
2022-11-28T16:12:14.564Z,2.91
2022-11-28T16:15:21.258Z,2.73
2022-11-28T16:18:25.808Z,2.76
2022-11-28T16:21:50.185Z,2.92
2022-11-28T16:24:57.096Z,2.83
2022-11-28T16:27:59.634Z,2.77
2022-11-28T16:31:02.789Z,2.97
2022-11-28T16:34:05.958Z,2.81
2022-11-28T16:37:11.352Z,2.96
2022-11-28T16:40:17.221Z,3.02
2022-11-28T16:43:40.303Z,2.97
2022-11-28T16:46:58.805Z,3.05
2022-11-28T16:50:16.800Z,2.99
2022-11-28T16:53:38.977Z,2.95
2022-11-28T16:56:43.537Z,3.01
2022-11-28T16:59:46.736Z,3.05
2022-11-28T17:02:52.997Z,3.03
2022-11-28T17:05:55.308Z,3.05
2022-11-28T17:08:58.314Z,2.98
2022-11-28T17:12:06.636Z,3.00
2022-11-28T17:15:17.354Z,2.99
2022-11-28T17:18:19.569Z,2.59
2022-11-28T17:21:44.101Z,2.89
2022-11-28T17:24:47.527Z,2.87
2022-11-28T17:27:50.474Z,2.75
2022-11-28T17:30:52.586Z,2.77
2022-11-28T17:33:54.962Z,2.82
2022-11-28T17:36:58.601Z,2.94
2022-11-28T17:40:20.959Z,2.91
2022-11-28T17:43:23.303Z,3.07
2022-11-28T17:46:26.162Z,3.00
2022-11-28T17:49:29.362Z,2.98
2022-11-28T17:52:32.738Z,2.97
2022-11-28T17:55:35.779Z,3.11
2022-11-28T17:58:38.204Z,3.15
2022-11-28T18:01:41.154Z,3.03
2022-11-28T18:04:44.242Z,3.06
2022-11-28T18:07:47.312Z,2.91
2022-11-28T18:10:49.899Z,2.97
2022-11-28T18:13:53.097Z,3.06
2022-11-28T18:16:55.709Z,2.94
2022-11-28T18:19:58.444Z,3.00
2022-11-28T18:23:01.079Z,2.95
2022-11-28T18:26:09.543Z,3.04
2022-11-28T18:29:12.057Z,3.09
2022-11-28T18:32:14.143Z,2.90
2022-11-28T18:35:17.184Z,2.92
2022-11-28T18:38:19.283Z,2.78
2022-11-28T18:41:22.193Z,2.75
2022-11-28T18:44:25.117Z,2.77
2022-11-28T18:47:28.870Z,2.95
2022-11-28T18:50:34.739Z,2.85
2022-11-28T18:53:37.640Z,2.89
2022-11-28T18:56:40.151Z,2.84
2022-11-28T18:59:49.834Z,2.72
2022-11-28T19:02:55.350Z,2.49
2022-11-28T19:05:58.599Z,2.63
2022-11-28T19:09:02.392Z,2.73
2022-11-28T19:12:04.823Z,2.69
2022-11-28T19:15:10.788Z,2.76
2022-11-28T19:18:13.626Z,2.75
2022-11-28T19:21:17.905Z,2.51
2022-11-28T19:24:20.287Z,2.40
2022-11-28T19:27:22.637Z,2.23
2022-11-28T19:30:24.966Z,2.31
2022-11-28T19:33:27.171Z,2.14
2022-11-28T19:36:41.208Z,2.08
2022-11-28T19:39:44.538Z,2.10
2022-11-28T19:42:47.684Z,2.19
2022-11-28T19:45:55.577Z,2.14
2022-11-28T19:49:00.742Z,2.06
2022-11-28T19:52:07.865Z,2.12
2022-11-28T19:55:12.677Z,2.12
2022-11-28T19:58:16.299Z,2.11
2022-11-28T20:01:24.014Z,2.12
2022-11-28T20:04:28.367Z,2.09
2022-11-28T20:07:30.986Z,1.98
2022-11-28T20:10:40.247Z,2.01
2022-11-28T20:13:43.748Z,2.05
2022-11-28T20:16:47.481Z,1.90
2022-11-28T20:19:51.247Z,1.84
2022-11-28T20:22:53.425Z,1.83
2022-11-28T20:25:55.980Z,1.79
2022-11-28T20:28:58.766Z,1.79
2022-11-28T20:32:01.530Z,1.81
2022-11-28T20:35:05.029Z,1.75
2022-11-28T20:38:07.999Z,1.71
2022-11-28T20:41:12.245Z,1.63
2022-11-28T20:44:15.117Z,1.66
2022-11-28T20:47:17.307Z,1.53
2022-11-28T20:50:19.852Z,1.48
2022-11-28T20:53:26.581Z,1.51
2022-11-28T20:56:31.733Z,1.56
2022-11-28T20:59:33.867Z,1.52
2022-11-28T21:02:36.321Z,1.41
2022-11-28T21:05:38.434Z,1.33
2022-11-28T21:08:41.386Z,1.39
2022-11-28T21:11:56.703Z,1.37
2022-11-28T21:15:02.133Z,1.34
2022-11-28T21:18:04.702Z,1.36
2022-11-28T21:21:09.246Z,1.28
2022-11-28T21:24:12.837Z,1.22
2022-11-28T21:27:15.119Z,1.15
2022-11-28T21:30:17.244Z,1.18
2022-11-28T21:33:19.482Z,1.24
2022-11-28T21:36:22.744Z,1.24
2022-11-28T21:39:25.008Z,1.29
2022-11-28T21:42:27.204Z,1.49
2022-11-28T21:45:29.617Z,1.47
2022-11-28T21:48:32.372Z,1.45
2022-11-28T21:51:34.707Z,1.52
2022-11-28T21:54:36.964Z,1.40
2022-11-28T21:57:42.168Z,1.29
2022-11-28T22:00:53.515Z,1.32
2022-11-28T22:07:22.688Z,1.42
2022-11-28T22:10:26.360Z,1.47
2022-11-28T22:13:28.711Z,1.50
2022-11-28T22:16:31.163Z,1.39
2022-11-28T22:19:33.967Z,1.34
2022-11-28T22:22:36.321Z,1.34
2022-11-28T22:25:38.939Z,1.28
2022-11-28T22:28:41.653Z,1.22
2022-11-28T22:31:44.463Z,1.34
2022-11-28T22:34:47.028Z,1.38
2022-11-28T22:37:49.077Z,1.43
2022-11-28T22:40:51.481Z,1.48
2022-11-28T22:43:59.648Z,1.46
2022-11-28T22:47:02.780Z,1.41
2022-11-28T22:50:05.662Z,1.43
2022-11-28T22:53:08.686Z,1.45
2022-11-28T22:56:14.269Z,1.36
2022-11-28T22:59:17.362Z,1.38
2022-11-28T23:02:19.761Z,1.32
2022-11-28T23:05:22.681Z,1.25
2022-11-28T23:08:24.890Z,1.36
2022-11-28T23:11:31.103Z,1.32
2022-11-28T23:14:34.020Z,1.39
2022-11-28T23:17:36.516Z,1.35
2022-11-28T23:20:38.636Z,1.28
2022-11-28T23:23:41.162Z,1.34
2022-11-28T23:26:43.623Z,1.22
2022-11-28T23:29:48.112Z,1.17
2022-11-28T23:32:50.348Z,1.15
2022-11-28T23:35:53.060Z,1.26
2022-11-28T23:38:58.103Z,1.22
2022-11-28T23:42:00.326Z,1.26
2022-11-28T23:45:02.343Z,1.26
2022-11-28T23:48:04.852Z,1.24
2022-11-28T23:51:07.424Z,1.20
2022-11-28T23:54:11.124Z,1.24
2022-11-28T23:57:13.136Z,1.30
